Time,TemperatureF,DewpointF,PressureIn,WindDirection,WindDirectionDegrees,WindSpeedMPH,WindSpeedGustMPH,Humidity,HourlyPrecipIn,Conditions,Clouds,dailyrainin,SoftwareType,DateUTC
2013-06-13 00:02:00,83.0,78.0,30.01,West,260,5.0,6.0,85,0.00,,,0.00,Wunderground v.1.15,2013-06-13 05:02:00,
2013-06-13 00:07:00,83.0,78.0,30.01,SW,219,2.0,6.0,85,0.00,,,0.00,Wunderground v.1.15,2013-06-13 05:07:00,
2013-06-13 00:13:00,82.9,78.3,30.01,West,264,1.0,4.0,86,0.00,,,0.00,Wunderground v.1.15,2013-06-13 05:13:00,
2013-06-13 00:19:00,82.8,78.2,30.01,WNW,296,1.0,4.0,86,0.00,,,0.00,Wunderground v.1.15,2013-06-13 05:19:00,
2013-06-13 00:25:00,82.7,78.4,30.01,SSE,158,2.0,5.0,87,0.00,,,0.00,Wunderground v.1.15,2013-06-13 05:25:00,
2013-06-13 00:31:00,82.7,78.8,30.00,West,276,2.0,2.0,88,0.00,,,0.00,Wunderground v.1.15,2013-06-13 05:31:00,
2013-06-13 00:37:00,82.7,79.1,30.01,WNW,291,2.0,4.0,89,0.00,,,0.00,Wunderground v.1.15,2013-06-13 05:37:00,
2013-06-13 00:42:00,82.5,78.2,30.00,SSE,157,2.0,3.0,87,0.00,,,0.00,Wunderground v.1.15,2013-06-13 05:42:00,
2013-06-13 00:48:00,82.5,78.2,30.00,West,264,3.0,4.0,87,0.00,,,0.00,Wunderground v.1.15,2013-06-13 05:48:00,
2013-06-13 00:54:00,82.2,77.9,30.00,West,266,3.0,4.0,87,0.00,,,0.00,Wunderground v.1.15,2013-06-13 05:54:00,
2013-06-13 01:00:00,81.9,77.6,30.00,West,276,3.0,3.0,87,0.00,,,0.00,Wunderground v.1.15,2013-06-13 06:00:00,
2013-06-13 01:06:00,81.7,77.5,30.00,WSW,254,1.0,5.0,87,0.00,,,0.00,Wunderground v.1.15,2013-06-13 06:06:00,
2013-06-13 01:12:00,81.5,77.3,30.00,West,262,2.0,3.0,87,0.00,,,0.00,Wunderground v.1.15,2013-06-13 06:12:00,
2013-06-13 01:18:00,81.3,77.1,30.00,West,263,2.0,4.0,87,0.00,,,0.00,Wunderground v.1.15,2013-06-13 06:18:00,
2013-06-13 01:24:00,81.3,77.1,30.00,West,267,3.0,3.0,87,0.00,,,0.00,Wunderground v.1.15,2013-06-13 06:24:00,
2013-06-13 01:29:00,81.2,77.0,30.00,West,281,4.0,4.0,87,0.00,,,0.00,Wunderground v.1.15,2013-06-13 06:29:00,
2013-06-13 01:35:00,81.1,76.9,30.00,West,269,1.0,3.0,87,0.00,,,0.00,Wunderground v.1.15,2013-06-13 06:35:00,
2013-06-13 01:41:00,81.1,77.2,30.00,West,278,2.0,4.0,88,0.00,,,0.00,Wunderground v.1.15,2013-06-13 06:41:00,
2013-06-13 01:47:00,81.0,77.1,30.00,West,267,1.0,4.0,88,0.00,,,0.00,Wunderground v.1.15,2013-06-13 06:47:00,
2013-06-13 01:53:00,80.9,77.0,30.00,West,281,1.0,2.0,88,0.00,,,0.00,Wunderground v.1.15,2013-06-13 06:53:00,
2013-06-13 01:59:00,80.8,77.3,30.00,West,264,1.0,2.0,89,0.00,,,0.00,Wunderground v.1.15,2013-06-13 06:59:00,
2013-06-13 02:04:00,80.7,77.2,30.00,WNW,294,2.0,5.0,89,0.00,,,0.00,Wunderground v.1.15,2013-06-13 07:04:00,
2013-06-13 02:09:00,80.7,77.2,30.00,West,266,4.0,5.0,89,0.00,,,0.00,Wunderground v.1.15,2013-06-13 07:09:00,
2013-06-13 02:14:00,80.6,77.1,30.00,West,269,1.0,4.0,89,0.00,,,0.00,Wunderground v.1.15,2013-06-13 07:14:00,
2013-06-13 02:19:00,80.6,77.1,30.00,West,271,1.0,4.0,89,0.00,,,0.00,Wunderground v.1.15,2013-06-13 07:19:00,
2013-06-13 02:24:00,80.5,77.3,29.99,West,278,2.0,4.0,90,0.00,,,0.00,Wunderground v.1.15,2013-06-13 07:24:00,
2013-06-13 02:29:00,80.4,77.2,29.99,West,262,3.0,4.0,90,0.00,,,0.00,Wunderground v.1.15,2013-06-13 07:29:00,
2013-06-13 02:34:00,80.3,77.1,29.99,West,266,1.0,4.0,90,0.00,,,0.00,Wunderground v.1.15,2013-06-13 07:34:00,
2013-06-13 02:39:00,80.3,77.1,29.99,West,279,2.0,6.0,90,0.00,,,0.00,Wunderground v.1.15,2013-06-13 07:39:00,
2013-06-13 02:44:00,80.3,77.1,29.99,West,278,2.0,4.0,90,0.00,,,0.00,Wunderground v.1.15,2013-06-13 07:44:00,
2013-06-13 02:49:00,80.2,77.0,29.99,West,278,3.0,4.0,90,0.00,,,0.00,Wunderground v.1.15,2013-06-13 07:49:00,
2013-06-13 02:54:00,80.2,77.0,29.99,West,277,2.0,4.0,90,0.00,,,0.00,Wunderground v.1.15,2013-06-13 07:54:00,
2013-06-13 02:59:00,80.1,76.9,29.99,West,270,3.0,4.0,90,0.00,,,0.00,Wunderground v.1.15,2013-06-13 07:59:00,
2013-06-13 03:04:00,80.1,76.9,29.99,West,276,2.0,4.0,90,0.00,,,0.00,Wunderground v.1.15,2013-06-13 08:04:00,
2013-06-13 03:09:00,80.0,76.8,29.99,West,273,2.0,7.0,90,0.00,,,0.00,Wunderground v.1.15,2013-06-13 08:09:00,
2013-06-13 03:14:00,80.0,77.1,29.98,West,281,2.0,4.0,91,0.00,,,0.00,Wunderground v.1.15,2013-06-13 08:14:00,
2013-06-13 03:19:00,79.9,77.0,29.99,West,278,2.0,5.0,91,0.00,,,0.00,Wunderground v.1.15,2013-06-13 08:19:00,
2013-06-13 03:24:00,79.9,77.0,29.99,WNW,298,2.0,3.0,91,0.00,,,0.00,Wunderground v.1.15,2013-06-13 08:24:00,
2013-06-13 03:29:00,79.8,76.9,29.99,WNW,285,1.0,4.0,91,0.00,,,0.00,Wunderground v.1.15,2013-06-13 08:29:00,
2013-06-13 03:34:00,79.7,76.8,29.99,West,276,1.0,3.0,91,0.00,,,0.00,Wunderground v.1.15,2013-06-13 08:34:00,
2013-06-13 03:39:00,79.6,76.7,29.99,West,278,3.0,5.0,91,0.00,,,0.00,Wunderground v.1.15,2013-06-13 08:39:00,
2013-06-13 03:44:00,79.6,77.1,29.99,NW,311,3.0,5.0,92,0.00,,,0.00,Wunderground v.1.15,2013-06-13 08:44:00,
2013-06-13 03:49:00,79.6,77.1,29.99,WNW,287,2.0,7.0,92,0.00,,,0.00,Wunderground v.1.15,2013-06-13 08:49:00,
2013-06-13 03:54:00,79.6,77.1,29.99,WNW,283,4.0,7.0,92,0.00,,,0.00,Wunderground v.1.15,2013-06-13 08:54:00,
2013-06-13 03:59:00,79.6,77.1,29.99,WNW,297,4.0,7.0,92,0.00,,,0.00,Wunderground v.1.15,2013-06-13 08:59:00,
2013-06-13 04:04:00,79.6,77.1,29.99,WNW,297,3.0,7.0,92,0.00,,,0.00,Wunderground v.1.15,2013-06-13 09:04:00,
2013-06-13 04:09:00,79.5,77.0,29.99,NW,307,2.0,7.0,92,0.00,,,0.00,Wunderground v.1.15,2013-06-13 09:09:00,
2013-06-13 04:14:00,79.5,77.3,29.99,WNW,293,5.0,7.0,93,0.00,,,0.00,Wunderground v.1.15,2013-06-13 09:14:00,
2013-06-13 04:19:00,79.6,77.1,29.98,WNW,300,6.0,9.0,92,0.00,,,0.00,Wunderground v.1.15,2013-06-13 09:19:00,
2013-06-13 04:24:00,79.6,77.4,29.98,WNW,292,4.0,11.0,93,0.00,,,0.00,Wunderground v.1.15,2013-06-13 09:24:00,
2013-06-13 04:29:00,79.5,77.3,29.99,WNW,294,2.0,11.0,93,0.00,,,0.00,Wunderground v.1.15,2013-06-13 09:29:00,
2013-06-13 04:34:00,79.3,77.1,29.99,WNW,297,5.0,8.0,93,0.00,,,0.00,Wunderground v.1.15,2013-06-13 09:34:00,
2013-06-13 04:39:00,79.2,77.0,29.99,WNW,291,6.0,8.0,93,0.00,,,0.00,Wunderground v.1.15,2013-06-13 09:39:00,
2013-06-13 04:44:00,79.1,76.9,29.99,WNW,300,4.0,7.0,93,0.00,,,0.00,Wunderground v.1.15,2013-06-13 09:44:00,
2013-06-13 04:49:00,79.0,77.1,29.99,WNW,292,3.0,7.0,94,0.00,,,0.00,Wunderground v.1.15,2013-06-13 09:49:00,
2013-06-13 04:54:00,78.9,77.0,29.99,WNW,303,5.0,7.0,94,0.00,,,0.00,Wunderground v.1.15,2013-06-13 09:54:00,
2013-06-13 04:59:00,78.9,77.0,29.99,WNW,297,7.0,9.0,94,0.00,,,0.00,Wunderground v.1.15,2013-06-13 09:59:00,
2013-06-13 05:04:00,78.8,76.9,29.99,WNW,283,4.0,11.0,94,0.00,,,0.00,Wunderground v.1.15,2013-06-13 10:04:00,
2013-06-13 05:09:00,78.7,76.8,29.99,NW,305,9.0,11.0,94,0.00,,,0.00,Wunderground v.1.15,2013-06-13 10:09:00,
2013-06-13 05:14:00,78.6,76.7,29.99,WNW,294,3.0,9.0,94,0.00,,,0.00,Wunderground v.1.15,2013-06-13 10:14:00,
2013-06-13 05:19:00,78.5,76.6,29.99,WNW,285,4.0,9.0,94,0.00,,,0.00,Wunderground v.1.15,2013-06-13 10:19:00,
2013-06-13 05:24:00,78.5,76.6,29.99,WNW,294,3.0,8.0,94,0.00,,,0.00,Wunderground v.1.15,2013-06-13 10:24:00,
2013-06-13 05:29:00,78.5,76.6,29.99,WNW,287,3.0,8.0,94,0.00,,,0.00,Wunderground v.1.15,2013-06-13 10:29:00,
2013-06-13 05:34:00,78.4,76.2,30.00,WNW,300,6.0,7.0,93,0.00,,,0.00,Wunderground v.1.15,2013-06-13 10:34:00,
2013-06-13 05:39:00,78.4,76.2,30.00,WNW,288,3.0,7.0,93,0.00,,,0.00,Wunderground v.1.15,2013-06-13 10:39:00,
2013-06-13 05:44:00,78.5,76.3,30.00,WNW,287,4.0,7.0,93,0.00,,,0.00,Wunderground v.1.15,2013-06-13 10:44:00,
2013-06-13 05:49:00,78.3,76.1,30.00,WNW,288,4.0,7.0,93,0.00,,,0.00,Wunderground v.1.15,2013-06-13 10:49:00,
2013-06-13 05:54:00,78.3,76.1,30.00,NW,310,3.0,10.0,93,0.00,,,0.00,Wunderground v.1.15,2013-06-13 10:54:00,
2013-06-13 05:59:00,78.1,75.9,30.01,NW,311,3.0,10.0,93,0.00,,,0.00,Wunderground v.1.15,2013-06-13 10:59:00,
2013-06-13 06:04:00,78.0,75.8,30.01,WNW,300,3.0,9.0,93,0.00,,,0.00,Wunderground v.1.15,2013-06-13 11:04:00,
2013-06-13 06:09:00,78.0,75.8,30.01,WNW,297,5.0,10.0,93,0.00,,,0.00,Wunderground v.1.15,2013-06-13 11:09:00,
2013-06-13 06:14:00,78.0,75.8,30.01,NNW,342,5.0,10.0,93,0.00,,,0.00,Wunderground v.1.15,2013-06-13 11:14:00,
2013-06-13 06:19:00,78.0,75.8,30.01,NW,309,8.0,11.0,93,0.00,,,0.00,Wunderground v.1.15,2013-06-13 11:19:00,
2013-06-13 06:24:00,78.0,75.8,30.01,WNW,293,5.0,9.0,93,0.00,,,0.00,Wunderground v.1.15,2013-06-13 11:24:00,
2013-06-13 06:29:00,78.1,75.9,30.01,WNW,302,4.0,9.0,93,0.00,,,0.00,Wunderground v.1.15,2013-06-13 11:29:00,
2013-06-13 06:34:00,78.1,75.9,30.01,NW,307,4.0,6.0,93,0.00,,,0.00,Wunderground v.1.15,2013-06-13 11:34:00,
2013-06-13 06:39:00,78.1,75.9,30.01,WNW,284,3.0,6.0,93,0.00,,,0.00,Wunderground v.1.15,2013-06-13 11:39:00,
2013-06-13 06:44:00,78.2,76.0,30.01,NW,309,3.0,4.0,93,0.00,,,0.00,Wunderground v.1.15,2013-06-13 11:44:00,
2013-06-13 06:49:00,78.3,76.1,30.01,WNW,299,5.0,8.0,93,0.00,,,0.00,Wunderground v.1.15,2013-06-13 11:49:00,
2013-06-13 06:54:00,78.6,76.1,30.01,NW,315,5.0,10.0,92,0.00,,,0.00,Wunderground v.1.15,2013-06-13 11:54:00,
2013-06-13 06:59:00,78.8,76.3,30.01,WNW,295,3.0,10.0,92,0.00,,,0.00,Wunderground v.1.15,2013-06-13 11:59:00,
2013-06-13 07:04:00,79.0,76.1,30.02,West,269,2.0,7.0,91,0.00,,,0.00,Wunderground v.1.15,2013-06-13 12:04:00,
2013-06-13 07:09:00,79.0,76.1,30.02,WSW,252,5.0,7.0,91,0.00,,,0.00,Wunderground v.1.15,2013-06-13 12:09:00,
2013-06-13 07:14:00,79.0,76.1,30.02,WNW,300,4.0,7.0,91,0.00,,,0.00,Wunderground v.1.15,2013-06-13 12:14:00,
2013-06-13 07:19:00,79.0,76.1,30.02,NW,304,3.0,7.0,91,0.00,,,0.00,Wunderground v.1.15,2013-06-13 12:19:00,
2013-06-13 07:24:00,79.1,76.6,30.02,West,281,3.0,7.0,92,0.00,,,0.00,Wunderground v.1.15,2013-06-13 12:24:00,
2013-06-13 07:29:00,79.3,76.8,30.03,NW,310,3.0,7.0,92,0.00,,,0.00,Wunderground v.1.15,2013-06-13 12:29:00,
2013-06-13 07:34:00,79.5,76.6,30.03,WNW,293,5.0,8.0,91,0.00,,,0.00,Wunderground v.1.15,2013-06-13 12:34:00,
2013-06-13 07:39:00,79.6,76.7,30.03,WNW,284,5.0,11.0,91,0.00,,,0.00,Wunderground v.1.15,2013-06-13 12:39:00,
2013-06-13 07:44:00,79.8,76.9,30.03,NW,319,4.0,8.0,91,0.00,,,0.00,Wunderground v.1.15,2013-06-13 12:44:00,
2013-06-13 07:49:00,79.8,76.6,30.03,NW,304,4.0,11.0,90,0.00,,,0.00,Wunderground v.1.15,2013-06-13 12:49:00,
2013-06-13 07:54:00,79.8,76.6,30.03,WNW,291,3.0,9.0,90,0.00,,,0.00,Wunderground v.1.15,2013-06-13 12:54:00,
2013-06-13 07:59:00,80.0,76.8,30.03,WNW,296,8.0,10.0,90,0.00,,,0.00,Wunderground v.1.15,2013-06-13 12:59:00,
2013-06-13 08:04:00,80.2,77.0,30.03,NW,317,5.0,13.0,90,0.00,,,0.00,Wunderground v.1.15,2013-06-13 13:04:00,
2013-06-13 08:09:00,80.3,77.1,30.04,WNW,283,5.0,13.0,90,0.00,,,0.00,Wunderground v.1.15,2013-06-13 13:09:00,
2013-06-13 08:14:00,80.4,76.9,30.04,WNW,285,4.0,10.0,89,0.00,,,0.00,Wunderground v.1.15,2013-06-13 13:14:00,
2013-06-13 08:19:00,80.4,77.2,30.04,NW,307,6.0,12.0,90,0.00,,,0.00,Wunderground v.1.15,2013-06-13 13:19:00,
2013-06-13 08:24:00,80.7,77.2,30.04,NW,304,6.0,9.0,89,0.00,,,0.00,Wunderground v.1.15,2013-06-13 13:24:00,
2013-06-13 08:29:00,81.1,77.2,30.04,NW,309,10.0,10.0,88,0.00,,,0.00,Wunderground v.1.15,2013-06-13 13:29:00,
2013-06-13 08:34:00,81.0,77.1,30.04,WNW,300,5.0,12.0,88,0.00,,,0.00,Wunderground v.1.15,2013-06-13 13:34:00,
2013-06-13 08:39:00,81.3,77.4,30.04,NW,307,9.0,12.0,88,0.00,,,0.00,Wunderground v.1.15,2013-06-13 13:39:00,
2013-06-13 08:44:00,81.5,77.6,30.04,NW,326,6.0,11.0,88,0.00,,,0.00,Wunderground v.1.15,2013-06-13 13:44:00,
2013-06-13 08:49:00,81.9,77.6,30.04,West,281,5.0,11.0,87,0.00,,,0.00,Wunderground v.1.15,2013-06-13 13:49:00,
2013-06-13 08:54:00,82.1,77.8,30.04,NW,320,4.0,11.0,87,0.00,,,0.00,Wunderground v.1.15,2013-06-13 13:54:00,
2013-06-13 08:59:00,82.0,77.7,30.04,WNW,300,7.0,12.0,87,0.00,,,0.00,Wunderground v.1.15,2013-06-13 13:59:00,
2013-06-13 09:04:00,82.1,77.8,30.04,NW,307,5.0,14.0,87,0.00,,,0.00,Wunderground v.1.15,2013-06-13 14:04:00,
2013-06-13 09:10:00,82.6,78.3,30.04,West,271,4.0,7.0,87,0.00,,,0.00,Wunderground v.1.15,2013-06-13 14:10:00,
2013-06-13 09:15:00,82.6,78.0,30.04,West,280,5.0,10.0,86,0.00,,,0.00,Wunderground v.1.15,2013-06-13 14:15:00,
2013-06-13 09:20:00,82.7,78.1,30.04,NW,316,4.0,6.0,86,0.00,,,0.00,Wunderground v.1.15,2013-06-13 14:20:00,
2013-06-13 09:25:00,82.9,77.9,30.04,West,263,5.0,11.0,85,0.00,,,0.00,Wunderground v.1.15,2013-06-13 14:25:00,
2013-06-13 09:30:00,83.1,78.5,30.03,NNW,333,6.0,7.0,86,0.00,,,0.00,Wunderground v.1.15,2013-06-13 14:30:00,
2013-06-13 09:35:00,83.0,78.0,30.03,WNW,300,6.0,9.0,85,0.00,,,0.00,Wunderground v.1.15,2013-06-13 14:35:00,
2013-06-13 09:40:00,83.1,78.1,30.03,WNW,294,3.0,7.0,85,0.00,,,0.00,Wunderground v.1.15,2013-06-13 14:40:00,
2013-06-13 09:45:00,83.6,77.9,30.03,WNW,293,4.0,8.0,83,0.00,,,0.00,Wunderground v.1.15,2013-06-13 14:45:00,
2013-06-13 09:50:00,84.1,78.4,30.03,WNW,300,4.0,5.0,83,0.00,,,0.00,Wunderground v.1.15,2013-06-13 14:50:00,
2013-06-13 09:55:00,83.9,77.8,30.03,West,267,4.0,7.0,82,0.00,,,0.00,Wunderground v.1.15,2013-06-13 14:55:00,
2013-06-13 10:00:00,83.5,77.8,30.03,NW,324,6.0,7.0,83,0.00,,,0.00,Wunderground v.1.15,2013-06-13 15:00:00,
2013-06-13 10:05:00,83.6,77.5,30.03,NW,312,7.0,12.0,82,0.00,,,0.00,Wunderground v.1.15,2013-06-13 15:05:00,
2013-06-13 10:10:00,84.0,77.5,30.03,WNW,303,4.0,6.0,81,0.00,,,0.00,Wunderground v.1.15,2013-06-13 15:10:00,
2013-06-13 10:15:00,84.5,78.4,30.03,NNW,340,5.0,10.0,82,0.00,,,0.00,Wunderground v.1.15,2013-06-13 15:15:00,
2013-06-13 10:20:00,84.9,78.4,30.03,NNW,343,6.0,6.0,81,0.00,,,0.00,Wunderground v.1.15,2013-06-13 15:20:00,
2013-06-13 10:25:00,85.0,77.8,30.03,NW,304,5.0,10.0,79,0.00,,,0.00,Wunderground v.1.15,2013-06-13 15:25:00,
2013-06-13 10:30:00,85.0,78.5,30.03,NW,323,5.0,5.0,81,0.00,,,0.00,Wunderground v.1.15,2013-06-13 15:30:00,
2013-06-13 10:35:00,85.2,77.9,30.02,NW,309,5.0,8.0,79,0.00,,,0.00,Wunderground v.1.15,2013-06-13 15:35:00,
2013-06-13 10:40:00,85.2,77.6,30.02,NNW,346,5.0,5.0,78,0.00,,,0.00,Wunderground v.1.15,2013-06-13 15:40:00,
2013-06-13 10:45:00,85.5,77.9,30.02,NNW,348,5.0,9.0,78,0.00,,,0.00,Wunderground v.1.15,2013-06-13 15:45:00,
2013-06-13 10:50:00,85.7,77.3,30.02,WNW,300,6.0,9.0,76,0.00,,,0.00,Wunderground v.1.15,2013-06-13 15:50:00,
2013-06-13 10:55:00,85.8,78.5,30.02,West,281,3.0,11.0,79,0.00,,,0.00,Wunderground v.1.15,2013-06-13 15:55:00,
2013-06-13 11:00:00,85.9,77.8,30.02,NNW,329,3.0,5.0,77,0.00,,,0.00,Wunderground v.1.15,2013-06-13 16:00:00,
2013-06-13 11:05:00,86.1,78.0,30.02,NW,310,6.0,10.0,77,0.00,,,0.00,Wunderground v.1.15,2013-06-13 16:05:00,
2013-06-13 11:10:00,86.3,78.2,30.02,NNW,331,4.0,6.0,77,0.00,,,0.00,Wunderground v.1.15,2013-06-13 16:10:00,
2013-06-13 11:15:00,86.5,78.0,30.01,NW,320,2.0,9.0,76,0.00,,,0.00,Wunderground v.1.15,2013-06-13 16:15:00,
2013-06-13 11:20:00,86.7,77.8,30.01,NW,319,2.0,5.0,75,0.00,,,0.00,Wunderground v.1.15,2013-06-13 16:20:00,
2013-06-13 11:25:00,86.8,78.3,30.01,WNW,297,4.0,7.0,76,0.00,,,0.00,Wunderground v.1.15,2013-06-13 16:25:00,
2013-06-13 11:30:00,86.9,78.0,30.01,NW,311,6.0,6.0,75,0.00,,,0.00,Wunderground v.1.15,2013-06-13 16:30:00,
2013-06-13 11:35:00,86.9,78.0,30.01,WNW,300,3.0,9.0,75,0.00,,,0.00,Wunderground v.1.15,2013-06-13 16:35:00,
2013-06-13 11:40:00,87.5,78.2,30.01,NNW,328,8.0,8.0,74,0.00,,,0.00,Wunderground v.1.15,2013-06-13 16:40:00,
2013-06-13 11:45:00,87.7,77.5,30.01,WNW,291,3.0,8.0,72,0.00,,,0.00,Wunderground v.1.15,2013-06-13 16:45:00,
2013-06-13 11:50:00,88.4,77.4,30.01,WNW,297,3.0,4.0,70,0.00,,,0.00,Wunderground v.1.15,2013-06-13 16:50:00,
2013-06-13 11:55:00,87.7,76.3,30.01,NW,305,2.0,12.0,69,0.00,,,0.00,Wunderground v.1.15,2013-06-13 16:55:00,
2013-06-13 12:00:00,87.5,76.9,30.01,South,184,5.0,5.0,71,0.00,,,0.00,Wunderground v.1.15,2013-06-13 17:00:00,
2013-06-13 12:05:00,87.9,77.7,30.01,West,271,1.0,5.0,72,0.00,,,0.00,Wunderground v.1.15,2013-06-13 17:05:00,
2013-06-13 12:10:00,87.9,77.3,30.01,NNW,328,0.0,2.0,71,0.00,,,0.00,Wunderground v.1.15,2013-06-13 17:10:00,
2013-06-13 12:15:00,88.5,78.3,30.00,WSW,245,2.0,2.0,72,0.00,,,0.00,Wunderground v.1.15,2013-06-13 17:15:00,
2013-06-13 12:20:00,89.1,78.5,30.00,SW,214,7.0,7.0,71,0.00,,,0.00,Wunderground v.1.15,2013-06-13 17:20:00,
2013-06-13 12:25:00,88.7,78.9,30.00,South,188,7.0,9.0,73,0.00,,,0.00,Wunderground v.1.15,2013-06-13 17:25:00,
2013-06-13 12:30:00,88.6,78.8,30.00,South,187,7.0,9.0,73,0.00,,,0.00,Wunderground v.1.15,2013-06-13 17:30:00,
2013-06-13 12:35:00,88.8,79.4,30.00,West,263,5.0,9.0,74,0.00,,,0.00,Wunderground v.1.15,2013-06-13 17:35:00,
2013-06-13 12:40:00,89.2,79.0,30.00,SSW,205,3.0,5.0,72,0.00,,,0.00,Wunderground v.1.15,2013-06-13 17:40:00,
2013-06-13 12:45:00,89.3,79.9,29.99,SW,216,5.0,8.0,74,0.00,,,0.00,Wunderground v.1.15,2013-06-13 17:45:00,
2013-06-13 12:50:00,89.5,79.7,29.99,SW,218,3.0,6.0,73,0.00,,,0.00,Wunderground v.1.15,2013-06-13 17:50:00,
2013-06-13 12:55:00,89.8,79.6,29.99,SW,215,6.0,8.0,72,0.00,,,0.00,Wunderground v.1.15,2013-06-13 17:55:00,
2013-06-13 13:00:00,89.9,79.2,29.99,South,173,4.0,6.0,71,0.00,,,0.00,Wunderground v.1.15,2013-06-13 18:00:00,
2013-06-13 13:05:00,89.9,79.2,29.99,North,354,1.0,8.0,71,0.00,,,0.00,Wunderground v.1.15,2013-06-13 18:05:00,
2013-06-13 13:10:00,90.2,79.9,29.99,WSW,239,5.0,5.0,72,0.00,,,0.00,Wunderground v.1.15,2013-06-13 18:10:00,
2013-06-13 13:15:00,90.2,80.4,29.98,SW,219,4.0,9.0,73,0.00,,,0.00,Wunderground v.1.15,2013-06-13 18:15:00,
2013-06-13 13:20:00,90.3,80.0,29.98,WNW,298,3.0,7.0,72,0.00,,,0.00,Wunderground v.1.15,2013-06-13 18:20:00,
2013-06-13 13:25:00,90.5,79.8,29.98,SSW,205,4.0,8.0,71,0.00,,,0.00,Wunderground v.1.15,2013-06-13 18:25:00,
2013-06-13 13:30:00,90.4,79.7,29.98,WNW,288,4.0,6.0,71,0.00,,,0.00,Wunderground v.1.15,2013-06-13 18:30:00,
2013-06-13 13:35:00,90.5,79.4,29.98,West,278,3.0,9.0,70,0.00,,,0.00,Wunderground v.1.15,2013-06-13 18:35:00,
2013-06-13 13:40:00,90.3,78.7,29.98,West,280,2.0,5.0,69,0.00,,,0.00,Wunderground v.1.15,2013-06-13 18:40:00,
2013-06-13 13:45:00,90.1,78.6,29.97,SW,215,6.0,11.0,69,0.00,,,0.00,Wunderground v.1.15,2013-06-13 18:45:00,
2013-06-13 13:50:00,90.2,79.1,29.97,SSW,195,5.0,6.0,70,0.00,,,0.00,Wunderground v.1.15,2013-06-13 18:50:00,
2013-06-13 13:55:00,90.2,78.6,29.97,West,268,2.0,10.0,69,0.00,,,0.00,Wunderground v.1.15,2013-06-13 18:55:00,
2013-06-13 14:00:00,89.9,79.2,29.96,West,266,4.0,6.0,71,0.00,,,0.00,Wunderground v.1.15,2013-06-13 19:00:00,
2013-06-13 14:05:00,89.9,78.8,29.96,WNW,300,5.0,11.0,70,0.00,,,0.00,Wunderground v.1.15,2013-06-13 19:05:00,
2013-06-13 14:10:00,89.9,79.2,29.96,SW,215,7.0,10.0,71,0.00,,,0.00,Wunderground v.1.15,2013-06-13 19:10:00,
2013-06-13 14:15:00,89.7,78.6,29.96,SSW,198,1.0,11.0,70,0.00,,,0.00,Wunderground v.1.15,2013-06-13 19:15:00,
2013-06-13 14:20:00,89.6,78.5,29.96,WSW,240,3.0,10.0,70,0.00,,,0.00,Wunderground v.1.15,2013-06-13 19:20:00,
2013-06-13 14:25:00,90.0,78.5,29.95,SW,216,7.0,11.0,69,0.00,,,0.00,Wunderground v.1.15,2013-06-13 19:25:00,
2013-06-13 14:30:00,89.9,77.9,29.95,South,190,3.0,8.0,68,0.00,,,0.00,Wunderground v.1.15,2013-06-13 19:30:00,
2013-06-13 14:35:00,90.1,77.2,29.95,WSW,239,7.0,11.0,66,0.00,,,0.00,Wunderground v.1.15,2013-06-13 19:35:00,
2013-06-13 14:40:00,90.1,77.7,29.94,SW,229,3.0,7.0,67,0.00,,,0.00,Wunderground v.1.15,2013-06-13 19:40:00,
2013-06-13 14:45:00,89.9,76.1,29.95,SSW,195,6.0,13.0,64,0.00,,,0.00,Wunderground v.1.15,2013-06-13 19:45:00,
2013-06-13 14:50:00,89.9,76.6,29.94,NW,308,6.0,6.0,65,0.00,,,0.00,Wunderground v.1.15,2013-06-13 19:50:00,
2013-06-13 14:55:00,89.9,76.6,29.94,SW,230,4.0,9.0,65,0.00,,,0.00,Wunderground v.1.15,2013-06-13 19:55:00,
2013-06-13 15:00:00,90.0,76.2,29.94,SW,224,8.0,8.0,64,0.00,,,0.00,Wunderground v.1.15,2013-06-13 20:00:00,
2013-06-13 15:05:00,90.1,76.3,29.94,SSW,197,3.0,9.0,64,0.00,,,0.00,Wunderground v.1.15,2013-06-13 20:05:00,
2013-06-13 15:10:00,89.7,75.9,29.94,SW,219,4.0,6.0,64,0.00,,,0.00,Wunderground v.1.15,2013-06-13 20:10:00,
2013-06-13 15:15:00,88.6,75.3,29.94,WNW,287,6.0,10.0,65,0.00,,,0.00,Wunderground v.1.15,2013-06-13 20:15:00,
2013-06-13 15:20:00,88.8,76.0,29.93,West,268,2.0,7.0,66,0.00,,,0.00,Wunderground v.1.15,2013-06-13 20:20:00,
2013-06-13 15:25:00,89.2,76.8,29.93,SSW,194,4.0,11.0,67,0.00,,,0.00,Wunderground v.1.15,2013-06-13 20:25:00,
2013-06-13 15:30:00,89.4,75.6,29.93,West,260,3.0,7.0,64,0.00,,,0.00,Wunderground v.1.15,2013-06-13 20:30:00,
2013-06-13 15:35:00,89.6,75.8,29.93,SSW,193,5.0,13.0,64,0.00,,,0.00,Wunderground v.1.15,2013-06-13 20:35:00,
2013-06-13 15:40:00,89.9,76.1,29.93,SSW,211,5.0,6.0,64,0.00,,,0.00,Wunderground v.1.15,2013-06-13 20:40:00,
2013-06-13 15:45:00,90.0,75.7,29.92,South,187,3.0,11.0,63,0.00,,,0.00,Wunderground v.1.15,2013-06-13 20:45:00,
2013-06-13 15:50:00,90.2,74.9,29.92,SSW,212,6.0,8.0,61,0.00,,,0.00,Wunderground v.1.15,2013-06-13 20:50:00,
2013-06-13 15:55:00,90.4,75.1,29.92,SSW,213,1.0,11.0,61,0.00,,,0.00,Wunderground v.1.15,2013-06-13 20:55:00,
2013-06-13 16:00:00,89.9,75.1,29.92,SSE,158,5.0,6.0,62,0.00,,,0.00,Wunderground v.1.15,2013-06-13 21:00:00,
2013-06-13 16:05:00,90.1,75.8,29.92,SW,214,2.0,10.0,63,0.00,,,0.00,Wunderground v.1.15,2013-06-13 21:05:00,
2013-06-13 16:10:00,90.2,74.4,29.91,SSE,148,2.0,11.0,60,0.00,,,0.00,Wunderground v.1.15,2013-06-13 21:10:00,
2013-06-13 16:15:00,90.4,72.6,29.91,SSW,208,5.0,12.0,56,0.00,,,0.00,Wunderground v.1.15,2013-06-13 21:15:00,
2013-06-13 16:20:00,90.7,72.3,29.91,West,269,1.0,10.0,55,0.00,,,0.00,Wunderground v.1.15,2013-06-13 21:20:00,
2013-06-13 16:25:00,90.8,72.4,29.91,SSW,211,7.0,14.0,55,0.00,,,0.00,Wunderground v.1.15,2013-06-13 21:25:00,
2013-06-13 16:30:00,90.8,71.9,29.91,SSW,199,7.0,7.0,54,0.00,,,0.00,Wunderground v.1.15,2013-06-13 21:30:00,
2013-06-13 16:36:00,91.0,72.0,29.91,South,170,5.0,11.0,54,0.00,,,0.00,Wunderground v.1.15,2013-06-13 21:36:00,
2013-06-13 16:41:00,90.9,70.8,29.90,SW,232,4.0,9.0,52,0.00,,,0.00,Wunderground v.1.15,2013-06-13 21:41:00,
2013-06-13 16:46:00,90.9,72.5,29.90,NE,47,3.0,9.0,55,0.00,,,0.00,Wunderground v.1.15,2013-06-13 21:46:00,
2013-06-13 16:51:00,90.9,71.4,29.90,SE,139,2.0,7.0,53,0.00,,,0.00,Wunderground v.1.15,2013-06-13 21:51:00,
2013-06-13 16:56:00,91.2,73.3,29.90,WSW,250,2.0,8.0,56,0.00,,,0.00,Wunderground v.1.15,2013-06-13 21:56:00,
2013-06-13 17:01:00,91.3,74.4,29.90,WSW,252,2.0,7.0,58,0.00,,,0.00,Wunderground v.1.15,2013-06-13 22:01:00,
2013-06-13 17:06:00,91.3,72.3,29.90,SSW,200,1.0,7.0,54,0.00,,,0.00,Wunderground v.1.15,2013-06-13 22:06:00,
2013-06-13 17:11:00,91.4,71.9,29.89,SW,225,4.0,7.0,53,0.00,,,0.00,Wunderground v.1.15,2013-06-13 22:11:00,
2013-06-13 17:16:00,91.4,73.0,29.89,SSW,202,7.0,8.0,55,0.00,,,0.00,Wunderground v.1.15,2013-06-13 22:16:00,
2013-06-13 17:21:00,91.2,73.8,29.89,WSW,246,3.0,4.0,57,0.00,,,0.00,Wunderground v.1.15,2013-06-13 22:21:00,
2013-06-13 17:26:00,90.9,73.0,29.89,WSW,240,7.0,9.0,56,0.00,,,0.00,Wunderground v.1.15,2013-06-13 22:26:00,
2013-06-13 17:31:00,91.1,73.7,29.89,WSW,250,3.0,7.0,57,0.00,,,0.00,Wunderground v.1.15,2013-06-13 22:31:00,
2013-06-13 17:36:00,90.5,74.2,29.89,SSW,212,2.0,7.0,59,0.00,,,0.00,Wunderground v.1.15,2013-06-13 22:36:00,
2013-06-13 17:41:00,90.7,75.4,29.88,SSW,198,2.0,5.0,61,0.00,,,0.00,Wunderground v.1.15,2013-06-13 22:41:00,
2013-06-13 17:46:00,90.9,75.6,29.88,SW,217,4.0,6.0,61,0.00,,,0.00,Wunderground v.1.15,2013-06-13 22:46:00,
2013-06-13 17:51:00,90.8,76.5,29.88,West,264,0.0,4.0,63,0.00,,,0.00,Wunderground v.1.15,2013-06-13 22:51:00,
2013-06-13 17:56:00,90.6,74.8,29.88,West,274,3.0,9.0,60,0.00,,,0.00,Wunderground v.1.15,2013-06-13 22:56:00,
2013-06-13 18:01:00,90.9,74.6,29.88,WSW,241,4.0,6.0,59,0.00,,,0.00,Wunderground v.1.15,2013-06-13 23:01:00,
2013-06-13 18:06:00,91.0,73.7,29.88,WNW,291,6.0,9.0,57,0.00,,,0.00,Wunderground v.1.15,2013-06-13 23:06:00,
2013-06-13 18:11:00,90.9,74.6,29.87,WSW,249,1.0,3.0,59,0.00,,,0.00,Wunderground v.1.15,2013-06-13 23:11:00,
2013-06-13 18:16:00,90.8,75.0,29.87,West,259,2.0,7.0,60,0.00,,,0.00,Wunderground v.1.15,2013-06-13 23:16:00,
2013-06-13 18:21:00,90.6,75.3,29.87,West,281,1.0,3.0,61,0.00,,,0.00,Wunderground v.1.15,2013-06-13 23:21:00,
2013-06-13 18:26:00,90.4,75.1,29.87,West,262,3.0,4.0,61,0.00,,,0.00,Wunderground v.1.15,2013-06-13 23:26:00,
2013-06-13 18:31:00,90.3,75.5,29.87,West,264,4.0,4.0,62,0.00,,,0.00,Wunderground v.1.15,2013-06-13 23:31:00,
2013-06-13 18:36:00,90.2,75.4,29.87,West,271,1.0,6.0,62,0.00,,,0.00,Wunderground v.1.15,2013-06-13 23:36:00,
2013-06-13 18:41:00,90.1,76.3,29.87,WSW,250,1.0,3.0,64,0.00,,,0.00,Wunderground v.1.15,2013-06-13 23:41:00,
2013-06-13 18:46:00,90.3,76.5,29.87,West,274,1.0,5.0,64,0.00,,,0.00,Wunderground v.1.15,2013-06-13 23:46:00,
2013-06-13 18:51:00,90.5,76.7,29.87,WSW,239,1.0,5.0,64,0.00,,,0.00,Wunderground v.1.15,2013-06-13 23:51:00,
2013-06-13 18:56:00,90.3,76.5,29.87,WNW,297,2.0,6.0,64,0.00,,,0.00,Wunderground v.1.15,2013-06-13 23:56:00,
2013-06-13 19:01:00,90.0,76.6,29.87,West,269,1.0,5.0,65,0.00,,,0.00,Wunderground v.1.15,2013-06-14 00:01:00,
2013-06-13 19:06:00,89.8,76.9,29.87,West,277,3.0,5.0,66,0.00,,,0.00,Wunderground v.1.15,2013-06-14 00:06:00,
2013-06-13 19:11:00,89.7,76.4,29.87,WNW,295,5.0,6.0,65,0.00,,,0.00,Wunderground v.1.15,2013-06-14 00:11:00,
2013-06-13 19:16:00,89.5,76.6,29.87,West,269,2.0,6.0,66,0.00,,,0.00,Wunderground v.1.15,2013-06-14 00:16:00,
2013-06-13 19:21:00,89.4,76.1,29.87,WNW,283,3.0,4.0,65,0.00,,,0.00,Wunderground v.1.15,2013-06-14 00:21:00,
2013-06-13 19:26:00,89.3,75.0,29.87,WNW,300,3.0,5.0,63,0.00,,,0.00,Wunderground v.1.15,2013-06-14 00:26:00,
2013-06-13 19:31:00,89.0,74.8,29.87,WNW,294,1.0,2.0,63,0.00,,,0.00,Wunderground v.1.15,2013-06-14 00:31:00,
2013-06-13 19:36:00,88.7,74.5,29.88,WNW,295,1.0,3.0,63,0.00,,,0.00,Wunderground v.1.15,2013-06-14 00:36:00,
2013-06-13 19:41:00,88.5,74.8,29.87,WNW,295,1.0,1.0,64,0.00,,,0.00,Wunderground v.1.15,2013-06-14 00:41:00,
2013-06-13 19:46:00,88.2,75.4,29.87,West,278,1.0,1.0,66,0.00,,,0.00,Wunderground v.1.15,2013-06-14 00:46:00,
2013-06-13 19:51:00,87.6,74.8,29.87,West,278,0.0,1.0,66,0.00,,,0.00,Wunderground v.1.15,2013-06-14 00:51:00,
2013-06-13 19:56:00,87.1,75.3,29.87,West,278,0.0,1.0,68,0.00,,,0.00,Wunderground v.1.15,2013-06-14 00:56:00,
2013-06-13 20:01:00,86.7,75.3,29.87,West,278,0.0,0.0,69,0.00,,,0.00,Wunderground v.1.15,2013-06-14 01:01:00,
2013-06-13 20:06:00,86.2,75.3,29.87,West,278,0.0,0.0,70,0.00,,,0.00,Wunderground v.1.15,2013-06-14 01:06:00,
2013-06-13 20:11:00,85.6,74.7,29.87,West,278,0.0,0.0,70,0.00,,,0.00,Wunderground v.1.15,2013-06-14 01:11:00,
2013-06-13 20:16:00,85.2,75.6,29.87,West,278,0.0,0.0,73,0.00,,,0.00,Wunderground v.1.15,2013-06-14 01:16:00,
2013-06-13 20:21:00,84.8,76.0,29.87,West,278,0.0,0.0,75,0.00,,,0.00,Wunderground v.1.15,2013-06-14 01:21:00,
2013-06-13 20:26:00,84.6,76.2,29.87,West,278,0.0,1.0,76,0.00,,,0.00,Wunderground v.1.15,2013-06-14 01:26:00,
2013-06-13 20:31:00,84.4,76.4,29.87,West,278,0.0,1.0,77,0.00,,,0.00,Wunderground v.1.15,2013-06-14 01:31:00,
2013-06-13 20:36:00,84.1,76.5,29.87,West,278,0.0,1.0,78,0.00,,,0.00,Wunderground v.1.15,2013-06-14 01:36:00,
2013-06-13 20:41:00,83.9,76.7,29.87,West,278,0.0,0.0,79,0.00,,,0.00,Wunderground v.1.15,2013-06-14 01:41:00,
2013-06-13 20:46:00,83.8,77.0,29.87,West,274,1.0,1.0,80,0.00,,,0.00,Wunderground v.1.15,2013-06-14 01:46:00,
2013-06-13 20:51:00,84.0,77.2,29.87,West,271,1.0,1.0,80,0.00,,,0.00,Wunderground v.1.15,2013-06-14 01:51:00,
2013-06-13 20:56:00,84.3,77.5,29.87,West,266,1.0,2.0,80,0.00,,,0.00,Wunderground v.1.15,2013-06-14 01:56:00,
2013-06-13 21:01:00,84.3,77.5,29.88,West,273,0.0,1.0,80,0.00,,,0.00,Wunderground v.1.15,2013-06-14 02:01:00,
2013-06-13 21:06:00,84.2,77.7,29.87,West,273,0.0,1.0,81,0.00,,,0.00,Wunderground v.1.15,2013-06-14 02:06:00,
2013-06-13 21:11:00,84.1,77.6,29.87,West,270,0.0,1.0,81,0.00,,,0.00,Wunderground v.1.15,2013-06-14 02:11:00,
2013-06-13 21:16:00,84.1,77.6,29.87,West,269,0.0,1.0,81,0.00,,,0.00,Wunderground v.1.15,2013-06-14 02:16:00,
2013-06-13 21:21:00,84.1,77.3,29.88,West,269,2.0,2.0,80,0.00,,,0.00,Wunderground v.1.15,2013-06-14 02:21:00,
2013-06-13 21:26:00,84.1,77.3,29.88,WNW,283,0.0,2.0,80,0.00,,,0.00,Wunderground v.1.15,2013-06-14 02:26:00,
2013-06-13 21:31:00,84.0,77.2,29.87,West,262,1.0,2.0,80,0.00,,,0.00,Wunderground v.1.15,2013-06-14 02:31:00,
2013-06-13 21:36:00,83.9,77.1,29.87,West,267,2.0,2.0,80,0.00,,,0.00,Wunderground v.1.15,2013-06-14 02:36:00,
2013-06-13 21:41:00,83.9,77.1,29.88,West,278,0.0,2.0,80,0.00,,,0.00,Wunderground v.1.15,2013-06-14 02:41:00,
2013-06-13 21:46:00,83.7,76.9,29.88,West,275,0.0,2.0,80,0.00,,,0.00,Wunderground v.1.15,2013-06-14 02:46:00,
2013-06-13 21:52:00,83.6,76.8,29.88,West,269,1.0,1.0,80,0.00,,,0.00,Wunderground v.1.15,2013-06-14 02:52:00,
2013-06-13 21:57:00,83.7,76.9,29.88,West,267,1.0,2.0,80,0.00,,,0.00,Wunderground v.1.15,2013-06-14 02:57:00,
2013-06-13 22:02:00,83.7,76.9,29.88,West,259,1.0,2.0,80,0.00,,,0.00,Wunderground v.1.15,2013-06-14 03:02:00,
2013-06-13 22:07:00,83.8,77.0,29.88,West,260,0.0,2.0,80,0.00,,,0.00,Wunderground v.1.15,2013-06-14 03:07:00,
2013-06-13 22:12:00,83.8,77.0,29.89,West,278,2.0,4.0,80,0.00,,,0.00,Wunderground v.1.15,2013-06-14 03:12:00,
2013-06-13 22:17:00,83.7,76.9,29.88,West,274,0.0,4.0,80,0.00,,,0.00,Wunderground v.1.15,2013-06-14 03:17:00,
2013-06-13 22:22:00,83.7,76.9,29.88,WSW,257,1.0,3.0,80,0.00,,,0.00,Wunderground v.1.15,2013-06-14 03:22:00,
2013-06-13 22:27:00,83.7,76.9,29.88,West,269,1.0,3.0,80,0.00,,,0.00,Wunderground v.1.15,2013-06-14 03:27:00,
2013-06-13 22:32:00,83.7,76.9,29.89,West,271,2.0,2.0,80,0.00,,,0.00,Wunderground v.1.15,2013-06-14 03:32:00,
2013-06-13 22:37:00,83.6,77.1,29.89,West,271,1.0,2.0,81,0.00,,,0.00,Wunderground v.1.15,2013-06-14 03:37:00,
2013-06-13 22:42:00,83.5,77.1,29.89,West,280,1.0,2.0,81,0.00,,,0.00,Wunderground v.1.15,2013-06-14 03:42:00,
2013-06-13 22:47:00,83.5,77.1,29.89,West,269,1.0,2.0,81,0.00,,,0.00,Wunderground v.1.15,2013-06-14 03:47:00,
2013-06-13 22:52:00,83.5,77.1,29.90,West,262,1.0,2.0,81,0.00,,,0.00,Wunderground v.1.15,2013-06-14 03:52:00,
2013-06-13 22:57:00,83.5,77.1,29.89,West,266,1.0,2.0,81,0.00,,,0.00,Wunderground v.1.15,2013-06-14 03:57:00,
2013-06-13 23:01:00,83.5,77.1,29.90,West,276,2.0,2.0,81,0.00,,,0.00,Wunderground v.1.15,2013-06-14 04:01:00,
2013-06-13 23:06:00,83.4,77.0,29.89,West,267,0.0,2.0,81,0.00,,,0.00,Wunderground v.1.15,2013-06-14 04:06:00,
2013-06-13 23:11:00,83.3,76.9,29.89,West,274,2.0,2.0,81,0.00,,,0.00,Wunderground v.1.15,2013-06-14 04:11:00,
2013-06-13 23:17:00,83.2,76.8,29.89,West,273,0.0,2.0,81,0.00,,,0.00,Wunderground v.1.15,2013-06-14 04:17:00,
2013-06-13 23:22:00,83.2,76.8,29.89,West,270,0.0,1.0,81,0.00,,,0.00,Wunderground v.1.15,2013-06-14 04:22:00,
2013-06-13 23:27:00,83.2,76.8,29.89,West,270,0.0,1.0,81,0.00,,,0.00,Wunderground v.1.15,2013-06-14 04:27:00,
2013-06-13 23:32:00,83.1,76.3,29.89,West,269,1.0,2.0,80,0.00,,,0.00,Wunderground v.1.15,2013-06-14 04:32:00,
2013-06-13 23:37:00,83.2,76.4,29.89,West,263,0.0,2.0,80,0.00,,,0.00,Wunderground v.1.15,2013-06-14 04:37:00,
2013-06-13 23:42:00,83.1,75.9,29.89,SSW,203,0.0,1.0,79,0.00,,,0.00,Wunderground v.1.15,2013-06-14 04:42:00,
2013-06-13 23:47:00,83.1,75.9,29.88,West,274,1.0,2.0,79,0.00,,,0.00,Wunderground v.1.15,2013-06-14 04:47:00,
2013-06-13 23:52:00,83.2,76.0,29.89,West,276,1.0,3.0,79,0.00,,,0.00,Wunderground v.1.15,2013-06-14 04:52:00,
2013-06-13 23:57:00,83.1,75.9,29.89,WNW,288,1.0,3.0,79,0.00,,,0.00,Wunderground v.1.15,2013-06-14 04:57:00,